Hlavní strana
METAR-TAF:

METAR-TAF

Letiště :

Bermudy, Bermudy

zeměpisná šířka: 32-22N, zeměpisná délka: 064-41W, výška: 6 m

Aktuální stav počasí

Zpráva byla vytvořena před 52 minutami, v 00:55 UTC
Východní vítr 10 kt
Teplota 26°C
Vlhkost vzduchu 61%
Tlak 1019 hPa
Viditelnost 10 km a více
Skoro jasno ve výšce 3800 ft
Skoro jasno ve výšce 6000 ft

METAR: TXKF 240055Z 09010KT 9999 FEW038 FEW060 26/18 Q1019

Čas: 22:47 (01:47 UTC)

Předpověď počasí

Zpráva byla vytvořena před 2 hodinami a 17 minutami, v 23:30 UTC
Předpověď platná od 24 v 00 UTC do 24 v 12 UTC
Východní vítr 12 kt
Viditelnost 10 km a více
Skoro jasno ve výšce 3500 ft
Oblačno až skoro zataženo ve výšce 6000 ft

TAF: TXKF 232330Z 2400/2412 09012KT 9999 FEW035 BKN060

Stav a předpovědi počasí z více než 4 000 letišť (zprávy METAR a TAF).

Červené a žluté tečky na mapě představují dostupné meteorologické stanice.

Když kurzor umístíte na tečku, zobrazí se název stanice.

Pak kliknutím zobrazíte stav a předpověď počasí.

Chcete-li změnit mapu, kliknutím na zelené tlačítko se znaménkem +mapu přiblížíte, kliknutím na zelené tlačítko se znaménkem – mapu oddálíte a kliknutím na zelené šipky přejdete na sousední mapy.


METAR-TAF: